Time;durP1;ratioP1;P1;durP2;ratioP2;P2;SDS_P1;SDS_P2;PMS_P1;PMS_P2;Temp;Humidity;BMP_temperature;BMP_pressure;BME280_temperature;BME280_humidity;BME280_pressure;Samples;Min_cycle;Max_cycle;Signal;HPM_P1;HPM_P2
2021/12/09 00:01:07;;;;;;;10.88;3.33;;;;;;;-146.48;100.00;60459.00;5259533;28;20060;-69
2021/12/09 00:03:41;;;;;;;8.40;2.47;;;;;;;-146.48;100.00;60459.00;5258882;28;20025;-68
2021/12/09 00:06:12;;;;;;;11.13;3.75;;;;;;;-146.48;100.00;60459.00;5260049;28;20028;-68
2021/12/09 00:08:43;;;;;;;9.20;3.28;;;;;;;-146.48;100.00;60459.00;5259556;28;20460;-68
2021/12/09 00:11:15;;;;;;;7.85;2.92;;;;;;;-146.48;100.00;60459.00;5259268;28;20453;-67
2021/12/09 00:13:47;;;;;;;11.65;3.55;;;;;;;-146.48;100.00;60459.00;5259227;28;20082;-68
2021/12/09 00:16:18;;;;;;;8.70;2.88;;;;;;;-146.48;100.00;60459.00;5260142;28;20037;-68
2021/12/09 00:18:50;;;;;;;10.40;3.15;;;;;;;-146.48;100.00;60459.00;5258442;28;20077;-68
2021/12/09 00:21:21;;;;;;;9.70;2.58;;;;;;;-146.48;100.00;60459.00;5259877;27;20021;-67
2021/12/09 00:23:52;;;;;;;12.15;2.85;;;;;;;-146.48;100.00;60459.00;5259248;27;20025;-67
2021/12/09 00:26:24;;;;;;;12.02;3.58;;;;;;;-146.48;100.00;60459.00;5258992;28;20044;-67
2021/12/09 00:28:55;;;;;;;6.32;2.63;;;;;;;-146.48;100.00;60459.00;5259266;28;20072;-68
2021/12/09 00:31:27;;;;;;;7.30;3.08;;;;;;;-146.48;100.00;60459.00;5258820;28;20051;-67
2021/12/09 00:34:00;;;;;;;10.60;3.60;;;;;;;-146.48;100.00;60459.00;5259022;28;20456;-67
2021/12/09 00:36:42;;;;;;;10.38;3.53;;;;;;;-146.48;100.00;60459.00;5259810;28;20472;-67
2021/12/09 00:39:14;;;;;;;5.38;2.53;;;;;;;-146.48;100.00;60459.00;5258862;28;20087;-67
2021/12/09 00:41:45;;;;;;;14.32;3.60;;;;;;;-146.48;100.00;60459.00;5259064;28;20033;-68
2021/12/09 00:44:16;;;;;;;7.72;2.95;;;;;;;-146.48;100.00;60459.00;5259479;28;20029;-68
2021/12/09 00:46:48;;;;;;;8.87;3.07;;;;;;;-146.48;100.00;60459.00;5258192;28;20021;-68
2021/12/09 00:49:20;;;;;;;8.23;2.78;;;;;;;-146.48;100.00;60459.00;5259525;28;20021;-68
2021/12/09 00:51:51;;;;;;;11.60;3.72;;;;;;;-146.48;100.00;60459.00;5258676;28;20029;-69
2021/12/09 00:54:23;;;;;;;10.02;3.05;;;;;;;-146.48;100.00;60459.00;5258552;28;20028;-67
2021/12/09 00:56:55;;;;;;;15.33;3.37;;;;;;;-146.48;100.00;60459.00;5258562;28;20102;-66
2021/12/09 00:59:26;;;;;;;8.63;3.43;;;;;;;-146.48;100.00;60459.00;5259079;28;20453;-67
2021/12/09 01:01:57;;;;;;;7.87;2.47;;;;;;;-146.48;100.00;60459.00;5257886;28;20555;-69
2021/12/09 01:04:29;;;;;;;7.77;2.90;;;;;;;-146.48;100.00;60459.00;5259347;27;20064;-69
2021/12/09 01:07:00;;;;;;;9.45;2.80;;;;;;;-146.48;100.00;60459.00;5257772;28;20094;-69
2021/12/09 01:09:32;;;;;;;8.63;2.95;;;;;;;-146.48;100.00;60459.00;5258980;28;20021;-69
2021/12/09 01:12:05;;;;;;;6.78;2.20;;;;;;;-146.48;100.00;60459.00;5258450;28;20028;-68
2021/12/09 01:14:37;;;;;;;12.07;3.30;;;;;;;-146.48;100.00;60459.00;5257872;27;20120;-69
2021/12/09 01:17:10;;;;;;;10.03;2.93;;;;;;;-146.48;100.00;60459.00;5259051;27;20025;-68
2021/12/09 01:19:41;;;;;;;8.00;2.20;;;;;;;-146.48;100.00;60459.00;5258179;28;20033;-68
2021/12/09 01:22:13;;;;;;;6.03;2.40;;;;;;;-146.48;100.00;60459.00;5258015;28;20032;-68
2021/12/09 01:24:44;;;;;;;8.87;2.90;;;;;;;-146.48;100.00;60459.00;5257543;28;20035;-68
2021/12/09 01:27:15;;;;;;;10.60;3.05;;;;;;;-146.48;100.00;60459.00;5258859;28;20097;-67
2021/12/09 01:29:53;;;;;;;11.45;3.47;;;;;;;-146.48;100.00;60459.00;5257624;28;20104;-67
2021/12/09 01:32:29;;;;;;;6.43;2.97;;;;;;;-146.48;100.00;60459.00;5258547;28;20028;-67
2021/12/09 01:35:01;;;;;;;9.32;2.65;;;;;;;-146.48;100.00;60459.00;5257475;28;20040;-67
2021/12/09 01:37:33;;;;;;;7.47;2.43;;;;;;;-146.48;100.00;60459.00;5258471;28;20092;-68
2021/12/09 01:40:07;;;;;;;9.13;2.70;;;;;;;-146.48;100.00;60459.00;5258116;28;20033;-68
2021/12/09 01:42:38;;;;;;;6.23;2.40;;;;;;;-146.48;100.00;60459.00;5257198;27;20021;-68
2021/12/09 01:45:10;;;;;;;8.53;2.63;;;;;;;-146.48;100.00;60459.00;5258345;28;20021;-68
2021/12/09 01:47:42;;;;;;;11.57;3.37;;;;;;;-146.48;100.00;60459.00;5257802;28;20033;-68
2021/12/09 01:50:13;;;;;;;9.37;2.70;;;;;;;-146.48;100.00;60459.00;5257693;28;20021;-68
2021/12/09 01:52:45;;;;;;;11.30;3.63;;;;;;;-146.48;100.00;60459.00;5257885;28;20039;-68
2021/12/09 01:55:18;;;;;;;7.00;2.90;;;;;;;-146.48;100.00;60459.00;5258233;28;20108;-68
2021/12/09 01:57:51;;;;;;;10.20;3.10;;;;;;;-146.48;100.00;60459.00;5257046;28;20025;-68
2021/12/09 02:00:28;;;;;;;11.90;2.95;;;;;;;-146.48;100.00;60459.00;5258316;28;20099;-68
2021/12/09 02:02:59;;;;;;;11.43;3.43;;;;;;;-146.48;100.00;60459.00;5256948;28;20033;-68
2021/12/09 02:05:31;;;;;;;9.93;3.87;;;;;;;-146.48;100.00;60459.00;5258142;28;20029;-68
2021/12/09 02:08:03;;;;;;;9.30;3.17;;;;;;;-146.48;100.00;60459.00;5257493;28;20029;-68
2021/12/09 02:10:34;;;;;;;8.45;3.15;;;;;;;-146.48;100.00;60459.00;5257367;28;20116;-68
2021/12/09 02:13:06;;;;;;;9.43;2.90;;;;;;;-146.48;100.00;60459.00;5257522;28;20036;-68
2021/12/09 02:15:39;;;;;;;9.40;2.40;;;;;;;-146.48;100.00;60459.00;5257460;28;20025;-68
2021/12/09 02:18:12;;;;;;;8.50;3.13;;;;;;;-146.48;100.00;60459.00;5257262;27;20053;-68
2021/12/09 02:20:44;;;;;;;14.57;3.43;;;;;;;-146.48;100.00;60459.00;5257599;28;20123;-68
2021/12/09 02:23:17;;;;;;;12.67;4.17;;;;;;;-146.48;100.00;60459.00;5258106;28;20025;-67
2021/12/09 02:25:49;;;;;;;9.97;3.47;;;;;;;-146.48;100.00;60459.00;5256557;28;20033;-68
2021/12/09 02:28:20;;;;;;;8.33;2.90;;;;;;;-146.48;100.00;60459.00;5257889;28;20025;-68
2021/12/09 02:30:51;;;;;;;10.67;3.80;;;;;;;-146.48;100.00;60459.00;5256948;28;20029;-68
2021/12/09 02:33:23;;;;;;;11.27;2.57;;;;;;;-146.48;100.00;60459.00;5257327;28;20033;-68
2021/12/09 02:35:54;;;;;;;8.33;2.27;;;;;;;-146.48;100.00;60459.00;5258932;28;20120;-68
2021/12/09 02:38:25;;;;;;;8.43;3.33;;;;;;;-146.48;100.00;60459.00;5260924;28;20029;-69
2021/12/09 02:40:57;;;;;;;12.57;3.30;;;;;;;-146.48;100.00;60459.00;5260745;28;20111;-68
2021/12/09 02:43:29;;;;;;;7.37;3.20;;;;;;;-146.48;100.00;60459.00;5261643;28;20472;-69
2021/12/09 02:46:01;;;;;;;10.20;3.27;;;;;;;-146.48;100.00;60459.00;5260188;28;20029;-67
2021/12/09 02:48:32;;;;;;;8.63;2.37;;;;;;;-146.48;100.00;60459.00;5261300;28;20053;-69
2021/12/09 02:51:05;;;;;;;8.20;2.67;;;;;;;-146.48;100.00;60459.00;5260711;28;20044;-68
2021/12/09 02:53:37;;;;;;;7.97;2.70;;;;;;;-146.48;100.00;60459.00;5260229;28;20440;-68
2021/12/09 02:56:10;;;;;;;7.17;2.40;;;;;;;-146.48;100.00;60459.00;5261354;28;20081;-68
2021/12/09 02:58:41;;;;;;;10.37;3.10;;;;;;;-146.48;100.00;60459.00;5260630;28;20060;-68
2021/12/09 03:01:26;;;;;;;10.53;3.00;;;;;;;-146.48;100.00;60459.00;5260505;28;20066;-68
2021/12/09 03:04:00;;;;;;;11.33;3.37;;;;;;;-146.48;100.00;60459.00;5260459;28;20067;-67
2021/12/09 03:06:38;;;;;;;9.80;2.73;;;;;;;-146.48;100.00;60459.00;5260220;28;20025;-68
2021/12/09 03:09:14;;;;;;;9.70;2.63;;;;;;;-146.48;100.00;60459.00;5261220;28;20025;-68
2021/12/09 03:11:54;;;;;;;10.67;4.67;;;;;;;-146.48;100.00;60459.00;5260147;28;20041;-68
2021/12/09 03:14:25;;;;;;;8.53;3.07;;;;;;;-146.48;100.00;60459.00;5260082;28;20021;-67
2021/12/09 03:16:57;;;;;;;12.17;3.30;;;;;;;-146.48;100.00;60459.00;5260380;28;20028;-68
2021/12/09 03:19:28;;;;;;;12.93;3.30;;;;;;;-146.48;100.00;60459.00;5261015;28;20380;-68
2021/12/09 03:22:00;;;;;;;8.93;2.27;;;;;;;-146.48;100.00;60459.00;5259738;27;20028;-67
2021/12/09 03:24:31;;;;;;;8.53;2.87;;;;;;;-146.48;100.00;60459.00;5260691;28;20040;-67
2021/12/09 03:27:03;;;;;;;6.87;2.77;;;;;;;-146.48;100.00;60459.00;5260237;28;20064;-67
2021/12/09 03:29:35;;;;;;;10.57;2.43;;;;;;;-146.48;100.00;60459.00;5259836;28;20033;-68
2021/12/09 03:32:11;;;;;;;10.23;3.00;;;;;;;-146.48;100.00;60459.00;5259979;28;20403;-68
2021/12/09 03:34:44;;;;;;;8.63;2.30;;;;;;;-146.48;100.00;60459.00;5259037;28;20021;-68
2021/12/09 03:37:25;;;;;;;5.13;1.87;;;;;;;-146.48;100.00;60459.00;5260348;28;20028;-67
2021/12/09 03:39:57;;;;;;;10.17;2.13;;;;;;;-146.48;100.00;60459.00;5260211;28;20464;-67
2021/12/09 03:42:31;;;;;;;8.30;2.30;;;;;;;-146.48;100.00;60459.00;5259835;27;20021;-67
2021/12/09 03:45:05;;;;;;;10.97;2.47;;;;;;;-146.48;100.00;60459.00;5259915;28;20467;-67
2021/12/09 03:47:37;;;;;;;10.33;2.83;;;;;;;-146.48;100.00;60459.00;5259214;28;20128;-67
2021/12/09 03:50:12;;;;;;;10.43;2.67;;;;;;;-146.48;100.00;60459.00;5259719;28;20108;-68
2021/12/09 03:52:43;;;;;;;9.63;1.93;;;;;;;-146.48;100.00;60459.00;5259603;28;20049;-68
2021/12/09 03:55:15;;;;;;;9.97;2.03;;;;;;;-146.48;100.00;60459.00;5260352;28;20486;-68
2021/12/09 03:57:46;;;;;;;6.60;2.07;;;;;;;-146.48;100.00;60459.00;5258972;28;20017;-68
2021/12/09 04:00:17;;;;;;;12.35;2.05;;;;;;;-146.48;100.00;60459.00;5260157;28;20516;-69
2021/12/09 04:02:49;;;;;;;9.20;2.17;;;;;;;-146.48;100.00;60459.00;5258928;28;20400;-69
2021/12/09 04:05:21;;;;;;;8.63;1.70;;;;;;;-146.48;100.00;60459.00;5260190;28;20033;-69
2021/12/09 04:07:53;;;;;;;9.27;2.43;;;;;;;-146.48;100.00;60459.00;5259571;28;20021;-68
2021/12/09 04:10:25;;;;;;;10.97;2.00;;;;;;;-146.48;100.00;60459.00;5259201;28;20036;-67
2021/12/09 04:12:56;;;;;;;8.80;1.97;;;;;;;-146.48;100.00;60459.00;5259163;28;20124;-68
2021/12/09 04:15:27;;;;;;;6.53;1.57;;;;;;;-146.48;100.00;60459.00;5260341;28;20543;-67
2021/12/09 04:17:59;;;;;;;8.10;2.37;;;;;;;-146.48;100.00;60459.00;5258431;28;20029;-68
2021/12/09 04:20:31;;;;;;;9.20;2.37;;;;;;;-146.48;100.00;60459.00;5259949;28;20108;-68
2021/12/09 04:23:03;;;;;;;10.30;1.60;;;;;;;-146.48;100.00;60459.00;5259211;28;20040;-68
2021/12/09 04:25:35;;;;;;;8.93;1.93;;;;;;;-146.48;100.00;60459.00;5258992;28;20081;-68
2021/12/09 04:28:06;;;;;;;8.17;2.10;;;;;;;-146.48;100.00;60459.00;5259222;28;20460;-68
2021/12/09 04:30:40;;;;;;;8.07;2.03;;;;;;;-146.48;100.00;60459.00;5258213;28;21922;-68
2021/12/09 04:33:11;;;;;;;7.70;1.53;;;;;;;-146.48;100.00;60459.00;5259764;27;20028;-68
2021/12/09 04:35:43;;;;;;;9.07;1.47;;;;;;;-146.48;100.00;60459.00;5258968;28;20029;-67
2021/12/09 04:38:14;;;;;;;7.57;1.50;;;;;;;-146.48;100.00;60459.00;5259032;28;20488;-67
2021/12/09 04:40:45;;;;;;;9.10;1.93;;;;;;;-146.48;100.00;60459.00;5259322;28;20029;-68
2021/12/09 04:43:17;;;;;;;7.30;1.57;;;;;;;-146.48;100.00;60459.00;5259696;28;20032;-68
2021/12/09 04:45:48;;;;;;;8.03;2.30;;;;;;;-146.48;100.00;60459.00;5258081;28;20108;-67
2021/12/09 04:48:20;;;;;;;8.53;1.30;;;;;;;-146.48;100.00;60459.00;5259165;28;20057;-68
2021/12/09 04:50:51;;;;;;;6.87;1.63;;;;;;;-146.48;100.00;60459.00;5258917;28;20049;-68
2021/12/09 04:53:22;;;;;;;13.93;1.93;;;;;;;-146.48;100.00;60459.00;5258558;28;20025;-67
2021/12/09 04:55:54;;;;;;;5.93;1.73;;;;;;;-146.48;100.00;60459.00;5258827;28;20104;-67
2021/12/09 04:58:27;;;;;;;7.57;1.23;;;;;;;-146.48;100.00;60459.00;5258671;28;20112;-67
2021/12/09 05:01:00;;;;;;;12.37;1.83;;;;;;;-146.48;100.00;60459.00;5257297;27;20033;-67
2021/12/09 05:03:32;;;;;;;7.07;1.40;;;;;;;-146.48;100.00;60459.00;5259447;27;20020;-67
2021/12/09 05:06:04;;;;;;;8.37;1.70;;;;;;;-146.48;100.00;60459.00;5257846;28;20036;-67
2021/12/09 05:08:37;;;;;;;10.33;2.20;;;;;;;-146.48;100.00;60459.00;5259117;28;20033;-67
2021/12/09 05:11:15;;;;;;;5.83;1.87;;;;;;;-146.48;100.00;60459.00;5258951;28;20085;-67
2021/12/09 05:13:46;;;;;;;4.63;1.60;;;;;;;-146.48;100.00;60459.00;5257853;28;20425;-67
2021/12/09 05:16:17;;;;;;;8.97;1.80;;;;;;;-146.48;100.00;60459.00;5259150;28;20055;-67
2021/12/09 05:18:54;;;;;;;8.10;1.40;;;;;;;-146.48;100.00;60459.00;5258228;28;20027;-67
2021/12/09 05:21:37;;;;;;;10.93;1.77;;;;;;;-146.48;100.00;60459.00;5257932;28;20021;-66
2021/12/09 05:24:14;;;;;;;5.03;1.40;;;;;;;-146.48;100.00;60459.00;5258717;28;20017;-66
2021/12/09 05:26:53;;;;;;;6.47;1.50;;;;;;;-146.48;100.00;60459.00;5258182;28;20364;-67
2021/12/09 05:29:30;;;;;;;8.37;1.70;;;;;;;-146.48;100.00;60459.00;5258708;28;20029;-67
2021/12/09 05:32:08;;;;;;;8.07;1.23;;;;;;;-146.48;100.00;60459.00;5258048;28;20036;-67
2021/12/09 05:34:44;;;;;;;7.43;1.53;;;;;;;-146.48;100.00;60459.00;5257601;28;20162;-67
2021/12/09 05:37:19;;;;;;;8.20;1.57;;;;;;;-146.48;100.00;60459.00;5258669;28;20029;-67
2021/12/09 05:39:53;;;;;;;6.47;2.10;;;;;;;-146.48;100.00;60459.00;5258104;28;20088;-67
2021/12/09 05:42:25;;;;;;;11.40;1.53;;;;;;;-146.48;100.00;60459.00;5257817;28;20021;-67
2021/12/09 05:44:57;;;;;;;6.50;1.60;;;;;;;-146.48;100.00;60459.00;5258270;27;20138;-66
2021/12/09 05:47:30;;;;;;;13.73;2.33;;;;;;;-146.48;100.00;60459.00;5258327;28;20033;-67
2021/12/09 05:50:02;;;;;;;8.60;1.63;;;;;;;-146.48;100.00;60459.00;5256989;28;20415;-66
2021/12/09 05:52:34;;;;;;;8.47;2.00;;;;;;;-146.48;100.00;60459.00;5258343;28;20037;-68
2021/12/09 05:55:06;;;;;;;9.30;1.73;;;;;;;-146.48;100.00;60459.00;5256998;28;20112;-67
2021/12/09 05:57:38;;;;;;;8.87;1.97;;;;;;;-146.48;100.00;60459.00;5258242;28;20027;-68
2021/12/09 06:00:10;;;;;;;5.07;1.20;;;;;;;-146.48;100.00;60459.00;5258588;28;20028;-69
2021/12/09 06:02:41;;;;;;;6.93;2.20;;;;;;;-146.48;100.00;60459.00;5257161;28;20514;-69
2021/12/09 06:05:12;;;;;;;8.43;1.63;;;;;;;-146.48;100.00;60459.00;5258188;28;20013;-69
2021/12/09 06:07:45;;;;;;;7.57;2.03;;;;;;;-146.48;100.00;60459.00;5257888;28;20021;-68
2021/12/09 06:10:16;;;;;;;8.93;1.60;;;;;;;-146.48;100.00;60459.00;5257087;28;20111;-68
2021/12/09 06:12:47;;;;;;;8.70;1.83;;;;;;;-146.48;100.00;60459.00;5257662;28;20029;-68
2021/12/09 06:15:19;;;;;;;10.23;2.03;;;;;;;-146.48;100.00;60459.00;5257981;28;20102;-68
2021/12/09 06:17:50;;;;;;;9.20;2.23;;;;;;;-146.48;100.00;60459.00;5256562;28;20502;-69
2021/12/09 06:20:22;;;;;;;8.77;1.80;;;;;;;-146.48;100.00;60459.00;5258194;27;20032;-67
2021/12/09 06:22:53;;;;;;;8.00;1.60;;;;;;;-146.48;100.00;60459.00;5257261;28;20037;-67
2021/12/09 06:25:25;;;;;;;14.03;2.17;;;;;;;-146.48;100.00;60459.00;5257300;28;20472;-67
2021/12/09 06:27:56;;;;;;;8.63;2.00;;;;;;;-146.48;100.00;60459.00;5257441;28;20064;-68
2021/12/09 06:30:27;;;;;;;9.53;2.03;;;;;;;-146.48;100.00;60459.00;5257162;28;20026;-67
2021/12/09 06:32:59;;;;;;;10.23;2.07;;;;;;;-146.48;100.00;60459.00;5257490;28;20361;-67
2021/12/09 06:35:30;;;;;;;7.57;2.33;;;;;;;-146.48;100.00;60459.00;5257965;28;20028;-67
2021/12/09 06:38:03;;;;;;;12.23;2.37;;;;;;;-146.48;100.00;60459.00;5256489;27;20036;-67
2021/12/09 06:40:34;;;;;;;9.53;2.57;;;;;;;-146.48;100.00;60459.00;5257619;28;20044;-68
2021/12/09 06:43:05;;;;;;;10.27;2.13;;;;;;;-146.48;100.00;60459.00;5257137;28;20025;-68
2021/12/09 06:45:38;;;;;;;9.13;2.03;;;;;;;-146.48;100.00;60459.00;5257153;27;20463;-68
2021/12/09 06:48:11;;;;;;;11.43;2.43;;;;;;;-146.48;100.00;60459.00;5257612;28;20041;-68
2021/12/09 06:50:43;;;;;;;8.70;1.97;;;;;;;-146.48;100.00;60459.00;5257045;27;20033;-67
2021/12/09 06:53:17;;;;;;;10.00;2.50;;;;;;;-146.48;100.00;60459.00;5256778;28;20059;-67
2021/12/09 06:55:49;;;;;;;8.60;1.73;;;;;;;-146.48;100.00;60459.00;5257253;28;20017;-67
2021/12/09 06:58:21;;;;;;;9.00;3.13;;;;;;;-146.48;100.00;60459.00;5256983;28;20025;-68
2021/12/09 07:00:55;;;;;;;9.10;2.10;;;;;;;-146.48;100.00;60459.00;5257178;28;20073;-67
2021/12/09 07:03:27;;;;;;;5.67;2.20;;;;;;;-146.48;100.00;60459.00;5257418;28;20057;-67
2021/12/09 07:06:05;;;;;;;6.77;1.60;;;;;;;-146.48;100.00;60459.00;5256351;28;20025;-67
2021/12/09 07:08:44;;;;;;;8.57;2.00;;;;;;;-146.48;100.00;60459.00;5257279;28;20033;-68
2021/12/09 07:11:19;;;;;;;9.55;2.38;;;;;;;-146.48;100.00;60459.00;5257206;28;20104;-68
2021/12/09 07:13:50;;;;;;;8.93;1.93;;;;;;;-146.48;100.00;60459.00;5255717;28;20043;-67
2021/12/09 07:16:22;;;;;;;12.80;2.10;;;;;;;-146.48;100.00;60459.00;5257568;27;20029;-67
2021/12/09 07:18:53;;;;;;;9.33;1.97;;;;;;;-146.48;100.00;60459.00;5256835;28;20468;-68
2021/12/09 07:21:25;;;;;;;10.80;2.20;;;;;;;-146.48;100.00;60459.00;5256562;28;20071;-67
2021/12/09 07:23:56;;;;;;;8.77;2.23;;;;;;;-146.48;100.00;60459.00;5259587;28;20033;-67
2021/12/09 07:26:29;;;;;;;7.20;1.97;;;;;;;-146.48;100.00;60459.00;5259992;28;20044;-67
2021/12/09 07:29:01;;;;;;;10.63;1.70;;;;;;;-146.48;100.00;60459.00;5260397;28;20036;-67
2021/12/09 07:31:33;;;;;;;7.30;1.60;;;;;;;-146.48;100.00;60459.00;5260888;28;20029;-67
2021/12/09 07:34:05;;;;;;;8.50;1.83;;;;;;;-146.48;100.00;60459.00;5259366;28;20033;-67
2021/12/09 07:36:36;;;;;;;7.27;2.40;;;;;;;-146.48;100.00;60459.00;5260556;28;20036;-67
2021/12/09 07:39:08;;;;;;;8.67;1.90;;;;;;;-146.48;100.00;60459.00;5260308;28;20032;-67
2021/12/09 07:41:39;;;;;;;12.53;2.63;;;;;;;-146.48;100.00;60459.00;5259378;28;20109;-67
2021/12/09 07:44:13;;;;;;;9.90;2.10;;;;;;;-146.48;100.00;60459.00;5260575;28;20028;-67
2021/12/09 07:46:45;;;;;;;7.97;2.20;;;;;;;-146.48;100.00;60459.00;5259925;28;20036;-67
2021/12/09 07:49:17;;;;;;;7.60;1.53;;;;;;;-146.48;100.00;60459.00;5259439;28;20140;-67
2021/12/09 07:51:49;;;;;;;6.80;2.43;;;;;;;-146.48;100.00;60459.00;5259574;28;20168;-67
2021/12/09 07:54:20;;;;;;;8.10;2.07;;;;;;;-146.48;100.00;60459.00;5260229;28;20033;-67
2021/12/09 07:56:51;;;;;;;7.60;2.03;;;;;;;-146.48;100.00;60459.00;5259062;28;20450;-67
2021/12/09 07:59:23;;;;;;;7.93;1.97;;;;;;;-146.48;100.00;60459.00;5260225;28;20369;-67
2021/12/09 08:01:55;;;;;;;8.27;1.90;;;;;;;-146.48;100.00;60459.00;5258883;28;20433;-68
2021/12/09 08:04:26;;;;;;;12.63;1.97;;;;;;;-146.48;100.00;60459.00;5260010;28;20060;-67
2021/12/09 08:06:58;;;;;;;9.00;3.27;;;;;;;-146.48;100.00;60459.00;5259925;28;20581;-68
2021/12/09 08:09:29;;;;;;;12.17;2.50;;;;;;;-146.48;100.00;60459.00;5259217;28;20025;-67
2021/12/09 08:12:01;;;;;;;8.53;1.80;;;;;;;-146.48;100.00;60459.00;5259567;28;20033;-68
2021/12/09 08:14:32;;;;;;;10.33;2.47;;;;;;;-146.48;100.00;60459.00;5259828;28;20029;-67
2021/12/09 08:17:33;;;;;;;10.97;1.83;;;;;;;-146.48;100.00;60459.00;5258832;28;20017;-67
2021/12/09 08:20:05;;;;;;;7.00;1.90;;;;;;;-146.48;100.00;60459.00;5259522;28;20084;-67
2021/12/09 08:22:37;;;;;;;6.33;1.70;;;;;;;-146.48;100.00;60459.00;5259381;28;20032;-68
2021/12/09 08:25:12;;;;;;;8.17;2.20;;;;;;;-146.48;100.00;60459.00;5260205;28;20468;-67
2021/12/09 08:27:44;;;;;;;7.93;2.13;;;;;;;-146.48;100.00;60459.00;5259166;27;20070;-67
2021/12/09 08:30:19;;;;;;;7.22;1.80;;;;;;;-146.48;100.00;60459.00;5259277;28;20379;-68
2021/12/09 08:32:52;;;;;;;7.13;1.90;;;;;;;-146.48;100.00;60459.00;5258759;28;20468;-68
2021/12/09 08:35:23;;;;;;;14.60;2.93;;;;;;;-146.48;100.00;60459.00;5259538;28;20357;-68
2021/12/09 08:37:57;;;;;;;6.78;2.15;;;;;;;-146.48;100.00;60459.00;5258401;28;20089;-69
2021/12/09 08:40:29;;;;;;;5.23;1.83;;;;;;;-146.48;100.00;60459.00;5239164;28;20056;-67
2021/12/09 08:43:01;;;;;;;9.82;1.90;;;;;;;-146.48;100.00;60459.00;5238071;28;20049;-67
2021/12/09 08:45:32;;;;;;;6.97;1.65;;;;;;;-146.48;100.00;60459.00;5238159;28;20034;-67
2021/12/09 08:48:04;;;;;;;6.70;1.90;;;;;;;-146.48;100.00;60459.00;5270960;27;20046;-67
2021/12/09 08:50:38;;;;;;;10.30;1.70;;;;;;;-146.48;100.00;60459.00;5341788;27;20019;-67
2021/12/09 08:53:12;;;;;;;7.72;1.95;;;;;;;-146.48;100.00;60459.00;5346216;27;20019;-67
2021/12/09 08:55:44;;;;;;;8.80;1.88;;;;;;;-146.48;100.00;60459.00;5346253;27;20461;-67
2021/12/09 08:58:16;;;;;;;9.90;2.50;;;;;;;-146.48;100.00;60459.00;5346136;27;20072;-67
2021/12/09 09:00:50;;;;;;;6.63;1.95;;;;;;;-146.48;100.00;60459.00;5346438;27;20018;-69
2021/12/09 09:03:21;;;;;;;11.85;2.80;;;;;;;-146.48;100.00;60459.00;5346886;27;20355;-67
2021/12/09 09:05:53;;;;;;;11.40;2.33;;;;;;;-146.48;100.00;60459.00;5345424;27;20075;-68
2021/12/09 09:08:25;;;;;;;7.85;2.08;;;;;;;-146.48;100.00;60459.00;5346718;27;20098;-67
2021/12/09 09:10:57;;;;;;;9.15;2.45;;;;;;;-146.48;100.00;60459.00;5345941;27;20388;-67
2021/12/09 09:13:28;;;;;;;10.48;2.10;;;;;;;-146.48;100.00;60459.00;5346148;27;20019;-67
2021/12/09 09:15:59;;;;;;;6.57;1.83;;;;;;;-146.48;100.00;60459.00;5346290;27;20030;-67
2021/12/09 09:18:31;;;;;;;12.00;2.63;;;;;;;-146.48;100.00;60459.00;5346705;27;20030;-67
2021/12/09 09:21:02;;;;;;;7.43;1.65;;;;;;;-146.48;100.00;60459.00;5345452;27;20035;-67
2021/12/09 09:23:33;;;;;;;9.82;2.97;;;;;;;-146.48;100.00;60459.00;5346661;27;20023;-67
2021/12/09 09:26:05;;;;;;;11.93;2.40;;;;;;;-146.48;100.00;60459.00;5344798;27;20083;-68
2021/12/09 09:28:36;;;;;;;7.60;2.13;;;;;;;-146.48;100.00;60459.00;5346400;27;20027;-68
2021/12/09 09:31:08;;;;;;;9.15;2.50;;;;;;;-146.48;100.00;60459.00;5345933;27;20076;-67
2021/12/09 09:33:40;;;;;;;8.45;2.33;;;;;;;-146.48;100.00;60459.00;5344519;27;20023;-68
2021/12/09 09:36:11;;;;;;;9.63;2.08;;;;;;;-146.48;100.00;60459.00;5346069;27;20042;-67
2021/12/09 09:38:44;;;;;;;8.95;2.05;;;;;;;-146.48;100.00;60459.00;5345504;27;20490;-67
2021/12/09 09:41:17;;;;;;;9.88;2.38;;;;;;;-146.48;100.00;60459.00;5345011;27;20034;-67
2021/12/09 09:46:29;;;;;;;7.60;2.28;;;;;;;-146.48;100.00;60459.00;5345424;27;20355;-69
2021/12/09 09:49:02;;;;;;;9.05;2.10;;;;;;;-146.48;100.00;60459.00;5344327;27;20039;-71
2021/12/09 09:51:35;;;;;;;10.90;2.15;;;;;;;-146.48;100.00;60459.00;5345743;27;20107;-71
2021/12/09 09:54:08;;;;;;;7.22;2.20;;;;;;;-146.48;100.00;60459.00;5344588;27;20508;-69
2021/12/09 09:56:42;;;;;;;10.63;3.03;;;;;;;-146.48;100.00;60459.00;5345227;27;20390;-68
2021/12/09 09:59:17;;;;;;;6.97;2.20;;;;;;;-146.48;100.00;60459.00;5345938;27;20368;-69
2021/12/09 10:01:52;;;;;;;6.97;2.03;;;;;;;-146.48;100.00;60459.00;5344462;27;20385;-70
2021/12/09 10:04:44;;;;;;;11.93;2.60;;;;;;;-146.48;100.00;60459.00;5345673;27;20035;-69
2021/12/09 10:07:18;;;;;;;8.80;2.00;;;;;;;-146.48;100.00;60459.00;5345532;27;20038;-68
2021/12/09 10:09:51;;;;;;;8.63;1.98;;;;;;;-146.48;100.00;60459.00;5343262;27;20031;-68
2021/12/09 10:12:23;;;;;;;7.45;2.55;;;;;;;-146.48;100.00;60459.00;5344638;27;20055;-68
2021/12/09 10:14:54;;;;;;;8.38;2.47;;;;;;;-146.48;100.00;60459.00;5342908;27;20518;-68
2021/12/09 10:17:27;;;;;;;7.38;2.20;;;;;;;-146.48;100.00;60459.00;5344412;27;20023;-68
2021/12/09 10:20:04;;;;;;;9.02;2.22;;;;;;;-146.48;100.00;60459.00;5345050;27;20094;-68
2021/12/09 10:22:36;;;;;;;11.57;2.70;;;;;;;-146.48;100.00;60459.00;5344592;27;20058;-69
2021/12/09 10:25:20;;;;;;;15.63;3.03;;;;;;;-146.48;100.00;60459.00;5345240;27;20015;-69
2021/12/09 10:27:59;;;;;;;10.50;1.90;;;;;;;-146.48;100.00;60459.00;5344658;27;20044;-69
2021/12/09 10:30:36;;;;;;;;;;;;;;;-146.48;100.00;60459.00;5344983;27;20022;-69
2021/12/09 10:33:08;;;;;;;8.07;2.10;;;;;;;-146.48;100.00;60459.00;5345394;27;20349;-69
2021/12/09 10:35:40;;;;;;;6.95;1.85;;;;;;;-146.48;100.00;60459.00;5344675;27;20111;-69
2021/12/09 10:38:11;;;;;;;6.28;2.03;;;;;;;-146.48;100.00;60459.00;5344383;28;20027;-68
2021/12/09 10:40:43;;;;;;;10.20;2.42;;;;;;;-146.48;100.00;60459.00;5344763;27;20458;-68
2021/12/09 10:43:17;;;;;;;7.78;2.20;;;;;;;-146.48;100.00;60459.00;5345433;27;20547;-68
2021/12/09 10:45:48;;;;;;;8.02;2.53;;;;;;;-146.48;100.00;60459.00;5344372;28;20023;-68
2021/12/09 10:48:26;;;;;;;5.65;2.25;;;;;;;-146.48;100.00;60459.00;5344472;28;20508;-71
2021/12/09 10:53:47;;;;;;;7.13;2.33;;;;;;;-146.48;100.00;60459.00;5345256;27;20031;-68
2021/12/09 10:56:30;;;;;;;8.20;2.30;;;;;;;-146.48;100.00;60459.00;5345190;27;20037;-68
2021/12/09 10:59:02;;;;;;;7.45;2.75;;;;;;;-146.48;100.00;60459.00;5347198;27;20023;-67
2021/12/09 11:01:35;;;;;;;7.43;2.28;;;;;;;-146.48;100.00;60459.00;5349161;27;20100;-68
2021/12/09 11:04:06;;;;;;;9.40;2.63;;;;;;;-146.48;100.00;60459.00;5348630;27;20148;-68
2021/12/09 11:06:39;;;;;;;6.43;2.20;;;;;;;-146.48;100.00;60459.00;5347953;27;20430;-68
2021/12/09 11:09:12;;;;;;;6.93;2.72;;;;;;;-146.48;100.00;60459.00;5349342;27;20031;-68
2021/12/09 11:11:47;;;;;;;4.32;2.20;;;;;;;-146.48;100.00;60459.00;5347668;27;20448;-68
2021/12/09 11:14:21;;;;;;;4.63;1.88;;;;;;;-146.48;100.00;60459.00;5349025;27;20118;-68
2021/12/09 11:17:06;;;;;;;7.15;2.78;;;;;;;-146.48;100.00;60459.00;5348531;27;20038;-69
2021/12/09 11:19:47;;;;;;;8.43;2.17;;;;;;;-146.48;100.00;60459.00;5347870;27;20019;-70
2021/12/09 11:22:20;;;;;;;7.50;1.98;;;;;;;-146.48;100.00;60459.00;5349108;27;20057;-67
2021/12/09 11:24:58;;;;;;;6.65;1.88;;;;;;;-146.48;100.00;60459.00;5348429;27;20058;-68
2021/12/09 11:27:30;;;;;;;4.55;1.60;;;;;;;-146.48;100.00;60459.00;5348099;27;20072;-68
2021/12/09 11:30:12;;;;;;;7.82;2.40;;;;;;;-146.48;100.00;60459.00;5348195;27;20019;-68
2021/12/09 11:32:52;;;;;;;8.85;2.20;;;;;;;-146.48;100.00;60459.00;5347594;27;20051;-71
2021/12/09 11:35:30;;;;;;;5.05;2.25;;;;;;;-146.48;100.00;60459.00;5348953;27;20428;-70
2021/12/09 11:38:18;;;;;;;6.68;1.95;;;;;;;-146.48;100.00;60459.00;5348191;27;20102;-69